createdAt,value
2019-03-03T00:01:12.425Z,5.80
2019-03-03T00:06:17.329Z,5.30
2019-03-03T00:11:22.410Z,6.67
2019-03-03T00:16:27.379Z,5.13
2019-03-03T00:21:32.987Z,4.37
2019-03-03T00:26:37.121Z,3.87
2019-03-03T00:31:41.840Z,4.17
2019-03-03T00:37:04.429Z,4.20
2019-03-03T00:42:27.201Z,4.83
2019-03-03T00:47:54.556Z,3.80
2019-03-03T00:53:07.558Z,3.70
2019-03-03T00:58:30.079Z,3.43
2019-03-03T01:03:53.585Z,3.07
2019-03-03T01:09:08.693Z,4.10
2019-03-03T01:14:20.924Z,3.60
2019-03-03T01:19:54.328Z,2.80
2019-03-03T01:24:59.347Z,3.40
2019-03-03T01:30:05.421Z,3.10
2019-03-03T01:35:10.414Z,3.30
2019-03-03T01:40:15.200Z,3.60
2019-03-03T01:45:20.083Z,3.27
2019-03-03T01:50:25.109Z,3.23
2019-03-03T01:55:30.056Z,2.87
2019-03-03T02:00:35.107Z,2.83
2019-03-03T02:05:39.879Z,4.90
2019-03-03T02:10:44.775Z,2.77
2019-03-03T02:15:49.631Z,3.23
2019-03-03T02:20:54.434Z,2.93
2019-03-03T02:25:58.539Z,2.67
2019-03-03T02:31:03.369Z,3.33
2019-03-03T02:36:07.596Z,2.57
2019-03-03T02:41:12.916Z,2.30
2019-03-03T02:46:17.849Z,3.43
2019-03-03T02:51:22.695Z,3.37
2019-03-03T02:56:28.168Z,3.07
2019-03-03T03:01:37.545Z,2.53
2019-03-03T03:06:47.465Z,2.90
2019-03-03T03:12:17.101Z,2.53
2019-03-03T03:17:28.550Z,2.90
2019-03-03T03:22:51.240Z,2.67
2019-03-03T03:28:15.140Z,2.63
2019-03-03T03:33:42.356Z,2.90
2019-03-03T03:38:56.906Z,2.90
2019-03-03T03:44:24.017Z,2.73
2019-03-03T03:49:36.070Z,2.97
2019-03-03T03:54:58.426Z,3.20
2019-03-03T04:00:17.262Z,3.00
2019-03-03T04:05:30.844Z,3.97
2019-03-03T04:10:44.345Z,3.07
2019-03-03T04:16:02.041Z,2.83
2019-03-03T04:21:28.845Z,3.83
2019-03-03T04:26:59.447Z,3.90
2019-03-03T04:32:29.108Z,3.63
2019-03-03T04:37:59.460Z,3.03
2019-03-03T04:43:26.923Z,4.07
2019-03-03T04:48:48.185Z,4.17
2019-03-03T04:54:15.073Z,3.37
2019-03-03T04:59:28.174Z,3.87
2019-03-03T05:04:57.823Z,3.63
2019-03-03T05:10:21.716Z,4.17
2019-03-03T05:15:44.588Z,4.67
2019-03-03T05:20:51.204Z,3.90
2019-03-03T05:25:57.893Z,3.93
2019-03-03T05:31:02.636Z,3.40
2019-03-03T05:36:06.832Z,4.13
2019-03-03T05:41:10.937Z,4.17
2019-03-03T05:46:15.576Z,4.23
2019-03-03T05:51:23.124Z,3.57
2019-03-03T05:56:28.052Z,4.10
2019-03-03T06:01:32.175Z,3.20
2019-03-03T06:06:36.673Z,3.80
2019-03-03T06:11:41.557Z,5.03
2019-03-03T06:16:46.679Z,3.80
2019-03-03T06:21:50.971Z,5.90
2019-03-03T06:26:56.039Z,5.10
2019-03-03T06:32:02.083Z,6.07
2019-03-03T06:37:06.819Z,5.23
2019-03-03T06:42:12.685Z,6.30
2019-03-03T06:47:17.379Z,5.40
2019-03-03T06:52:22.257Z,5.77
2019-03-03T06:57:26.449Z,5.53
2019-03-03T07:02:30.585Z,5.87
2019-03-03T07:07:34.827Z,7.33
2019-03-03T07:12:48.621Z,6.30
2019-03-03T07:17:57.976Z,5.87
2019-03-03T07:23:05.752Z,7.27
2019-03-03T07:28:14.845Z,7.50
2019-03-03T07:33:39.947Z,5.67
2019-03-03T07:38:45.922Z,7.20
2019-03-03T07:43:50.710Z,7.83
2019-03-03T07:48:54.985Z,6.57
2019-03-03T07:53:59.726Z,6.33
2019-03-03T07:59:04.898Z,4.63
2019-03-03T08:04:09.685Z,6.47
2019-03-03T08:09:14.421Z,5.20
2019-03-03T08:14:19.204Z,4.83
2019-03-03T08:19:24.190Z,5.43
2019-03-03T08:24:28.904Z,6.00
2019-03-03T08:29:33.944Z,9.13
2019-03-03T08:34:38.697Z,7.40
2019-03-03T08:39:42.959Z,5.37
2019-03-03T08:45:02.703Z,8.00
2019-03-03T08:50:37.477Z,6.47
2019-03-03T08:56:10.530Z,5.00
2019-03-03T09:01:33.426Z,4.77
2019-03-03T09:06:58.503Z,7.07
2019-03-03T09:12:25.088Z,6.20
2019-03-03T09:17:44.469Z,5.23
2019-03-03T09:23:07.095Z,5.77
2019-03-03T09:28:19.709Z,4.50
2019-03-03T09:33:46.254Z,5.90
2019-03-03T09:39:12.797Z,4.57
2019-03-03T09:44:46.721Z,5.50
2019-03-03T09:50:02.836Z,5.10
2019-03-03T09:55:30.018Z,4.57
2019-03-03T10:00:48.885Z,5.60
2019-03-03T10:06:01.807Z,6.10
2019-03-03T10:11:14.276Z,5.83
2019-03-03T10:16:40.999Z,4.87
2019-03-03T10:21:59.906Z,4.93
2019-03-03T10:27:22.329Z,4.57
2019-03-03T10:32:44.312Z,4.50
2019-03-03T10:38:01.011Z,4.23
2019-03-03T10:43:36.973Z,4.40
2019-03-03T10:48:54.878Z,3.17
2019-03-03T10:54:18.225Z,3.00
2019-03-03T10:59:44.633Z,3.10
2019-03-03T11:05:20.640Z,3.07
2019-03-03T11:10:43.235Z,2.77
2019-03-03T11:15:58.538Z,2.70
2019-03-03T11:21:25.020Z,2.33
2019-03-03T11:26:54.534Z,2.30
2019-03-03T11:32:27.418Z,2.60
2019-03-03T11:37:49.848Z,4.00
2019-03-03T11:43:02.577Z,3.80
2019-03-03T11:48:20.789Z,5.20
2019-03-03T11:53:53.693Z,3.80
2019-03-03T11:59:20.286Z,5.53
2019-03-03T12:04:40.048Z,3.90
2019-03-03T12:09:59.406Z,3.00
2019-03-03T12:15:13.220Z,4.70
2019-03-03T12:20:36.329Z,4.53
2019-03-03T12:26:02.752Z,3.17
2019-03-03T12:31:14.421Z,3.93
2019-03-03T12:36:35.145Z,3.47
2019-03-03T12:42:10.584Z,3.20
2019-03-03T12:47:40.418Z,3.57
2019-03-03T12:53:10.518Z,3.93
2019-03-03T12:58:30.626Z,4.40
2019-03-03T13:03:42.033Z,4.67
2019-03-03T13:08:59.605Z,4.40
2019-03-03T13:14:21.765Z,5.13
2019-03-03T13:19:43.676Z,5.80
2019-03-03T13:24:58.555Z,6.33
2019-03-03T13:30:20.707Z,6.63
2019-03-03T13:35:50.991Z,7.30
2019-03-03T13:41:13.256Z,6.40
2019-03-03T13:46:18.238Z,5.37
2019-03-03T13:51:23.072Z,5.97
2019-03-03T13:56:27.430Z,6.47
2019-03-03T14:01:32.162Z,5.47
2019-03-03T14:06:36.728Z,7.07
2019-03-03T14:11:40.945Z,5.97
2019-03-03T14:16:45.075Z,6.63
2019-03-03T14:21:49.283Z,4.93
2019-03-03T14:26:54.035Z,5.70
2019-03-03T14:31:58.838Z,4.40
2019-03-03T14:37:04.542Z,4.07
2019-03-03T14:42:09.850Z,5.30
2019-03-03T14:47:14.765Z,4.77
2019-03-03T14:52:27.206Z,4.27
2019-03-03T14:57:32.152Z,6.10
2019-03-03T15:02:36.522Z,4.73
2019-03-03T15:07:41.390Z,5.03
2019-03-03T15:12:45.585Z,4.10
2019-03-03T15:17:53.027Z,4.37
2019-03-03T15:22:57.818Z,4.83
2019-03-03T15:28:05.607Z,4.63
2019-03-03T15:33:10.411Z,4.80
2019-03-03T15:38:15.301Z,4.57
2019-03-03T15:43:21.315Z,3.93
2019-03-03T15:48:26.819Z,3.30
2019-03-03T15:53:31.559Z,4.07
2019-03-03T15:58:36.405Z,4.27
2019-03-03T16:03:41.403Z,4.47
2019-03-03T16:08:55.445Z,4.30
2019-03-03T16:14:00.619Z,3.90
2019-03-03T16:19:05.607Z,4.30
2019-03-03T16:24:25.845Z,4.27
2019-03-03T16:29:37.621Z,4.90
2019-03-03T16:34:46.855Z,4.20
2019-03-03T16:39:56.586Z,3.90
2019-03-03T16:45:05.885Z,2.87
2019-03-03T16:50:25.685Z,3.40
2019-03-03T16:55:32.372Z,4.13
2019-03-03T17:00:37.666Z,3.33
2019-03-03T17:05:42.624Z,3.30
2019-03-03T17:10:46.864Z,3.33
2019-03-03T17:15:51.845Z,4.10
2019-03-03T17:20:57.570Z,3.63
2019-03-03T17:26:02.405Z,3.57
2019-03-03T17:31:07.383Z,3.77
2019-03-03T17:36:12.499Z,3.53
2019-03-03T17:41:17.630Z,3.27
2019-03-03T17:46:22.533Z,3.70
2019-03-03T17:51:28.481Z,4.07
2019-03-03T17:56:33.901Z,3.60
2019-03-03T18:01:39.360Z,3.57
2019-03-03T18:06:44.041Z,3.70
2019-03-03T18:11:49.189Z,3.17
2019-03-03T18:16:54.329Z,3.57
2019-03-03T18:21:59.906Z,3.80
2019-03-03T18:27:06.630Z,3.90
2019-03-03T18:32:11.399Z,4.40
2019-03-03T18:37:16.238Z,3.63
2019-03-03T18:42:22.969Z,3.27
2019-03-03T18:47:28.289Z,3.90
2019-03-03T18:52:33.289Z,4.07
2019-03-03T18:57:42.448Z,4.70
2019-03-03T19:02:47.963Z,3.43
2019-03-03T19:07:55.420Z,4.20
2019-03-03T19:13:00.504Z,3.90
2019-03-03T19:18:10.778Z,3.00
2019-03-03T19:23:15.593Z,3.03
2019-03-03T19:28:19.962Z,3.47
2019-03-03T19:33:35.762Z,2.97
2019-03-03T19:38:40.088Z,3.27
2019-03-03T19:43:44.820Z,3.13
2019-03-03T19:48:49.752Z,3.73
2019-03-03T19:53:55.037Z,4.13
2019-03-03T19:58:59.977Z,3.30
2019-03-03T20:04:04.926Z,3.90
2019-03-03T20:09:10.171Z,2.77
2019-03-03T20:14:16.936Z,3.63
2019-03-03T20:19:21.736Z,3.90
2019-03-03T20:24:28.304Z,2.30
2019-03-03T20:29:34.180Z,3.37
2019-03-03T20:34:42.596Z,2.70
2019-03-03T20:39:48.712Z,3.23
2019-03-03T20:45:04.591Z,3.53
2019-03-03T20:50:12.304Z,3.43
2019-03-03T20:55:21.088Z,2.80
2019-03-03T21:00:30.535Z,2.57
2019-03-03T21:05:42.162Z,2.80
2019-03-03T21:10:48.423Z,2.77
2019-03-03T21:15:55.310Z,2.93
2019-03-03T21:21:01.901Z,2.37
2019-03-03T21:26:06.972Z,2.07
2019-03-03T21:31:12.267Z,2.97
2019-03-03T21:36:17.526Z,2.70
2019-03-03T21:41:22.956Z,2.50
2019-03-03T21:46:33.302Z,2.90
2019-03-03T21:51:48.889Z,3.17
2019-03-03T21:56:54.235Z,2.87
2019-03-03T22:01:59.385Z,2.67
2019-03-03T22:07:05.547Z,2.37
2019-03-03T22:12:10.940Z,2.90
2019-03-03T22:17:19.912Z,2.70
2019-03-03T22:22:26.749Z,3.20
2019-03-03T22:27:36.649Z,2.40
2019-03-03T22:32:43.928Z,3.00
2019-03-03T22:37:51.557Z,2.87
2019-03-03T22:42:56.685Z,2.67
2019-03-03T22:48:10.988Z,2.50
2019-03-03T22:53:18.749Z,2.13
2019-03-03T22:58:29.733Z,2.50
2019-03-03T23:03:55.910Z,2.90
2019-03-03T23:09:55.521Z,3.00
2019-03-03T23:15:37.411Z,3.30
2019-03-03T23:20:51.692Z,2.40
2019-03-03T23:25:59.015Z,2.57
2019-03-03T23:31:09.131Z,2.80
2019-03-03T23:36:15.707Z,3.13
2019-03-03T23:41:27.377Z,2.40
2019-03-03T23:46:37.834Z,2.60
2019-03-03T23:51:42.930Z,2.23
2019-03-03T23:56:49.140Z,2.13
